Time;durP1;ratioP1;P1;durP2;ratioP2;P2;SDS_P1;SDS_P2;PMS_P1;PMS_P2;Temp;Humidity;BMP_temperature;BMP_pressure;BME280_temperature;BME280_humidity;BME280_pressure;Samples;Min_cycle;Max_cycle;Signal;HPM_P1;HPM_P2
2022/08/08 00:00:33;;;;;;;1999.90;999.90;;;;;;;21.51;52.57;95785.94;5032787;28;20030;-71
2022/08/08 00:03:19;;;;;;;1999.90;999.90;;;;;;;21.54;52.86;95799.53;5032139;28;20682;-71
2022/08/08 00:05:53;;;;;;;1999.90;999.90;;;;;;;21.47;53.10;95790.50;5028952;28;20033;-72
2022/08/08 00:08:22;;;;;;;1999.90;999.90;;;;;;;21.48;53.11;95802.88;5031933;28;20469;-72
2022/08/08 00:11:01;;;;;;;1999.90;999.90;;;;;;;21.44;53.31;95785.78;5032746;28;20036;-72
2022/08/08 00:13:51;;;;;;;1999.90;999.90;;;;;;;21.42;52.92;95794.28;5030961;28;20029;-71
2022/08/08 00:16:32;;;;;;;1999.90;999.90;;;;;;;21.40;53.10;95790.38;5027351;28;20030;-71
2022/08/08 00:19:19;;;;;;;1999.90;999.90;;;;;;;21.42;53.26;95796.19;5031481;28;20485;-73
2022/08/08 00:21:58;;;;;;;1999.90;999.90;;;;;;;21.42;53.15;95794.28;5011189;28;20497;-72
2022/08/08 00:24:31;;;;;;;1999.90;999.90;;;;;;;21.31;53.61;95781.69;5026201;28;20532;-72
2022/08/08 00:27:01;;;;;;;1999.90;999.90;;;;;;;21.31;53.51;95789.81;5030214;28;20026;-72
2022/08/08 00:29:35;;;;;;;1999.90;999.90;;;;;;;21.27;53.56;95778.88;5032317;28;20374;-72
2022/08/08 00:32:09;;;;;;;1999.90;999.90;;;;;;;21.31;53.33;95777.06;5047440;28;20037;-72
2022/08/08 00:37:42;;;;;;;1999.90;999.90;;;;;;;21.27;53.27;95784.28;5032031;28;20041;-72
2022/08/08 00:40:26;;;;;;;1999.90;999.90;;;;;;;21.31;53.09;95787.09;5031661;28;20445;-72
2022/08/08 00:43:13;;;;;;;1999.90;999.90;;;;;;;21.34;53.08;95783.66;5031410;28;20033;-72
2022/08/08 00:46:10;;;;;;;1999.90;999.90;;;;;;;21.28;52.60;95785.84;5046497;28;20021;-72
2022/08/08 00:48:49;;;;;;;1999.90;999.90;;;;;;;21.22;52.81;95788.06;5031194;28;20025;-72
2022/08/08 00:51:49;;;;;;;1999.90;999.90;;;;;;;21.18;52.88;95783.72;5030736;28;20129;-72
2022/08/08 00:54:36;;;;;;;1999.90;999.90;;;;;;;21.10;52.66;95782.81;5029238;28;20481;-72
2022/08/08 00:57:55;;;;;;;1999.90;999.90;;;;;;;21.11;53.20;95787.06;5031613;28;20037;-72
2022/08/08 01:00:24;;;;;;;1999.90;999.90;;;;;;;21.03;52.41;95779.94;5026955;28;20042;-72
2022/08/08 01:03:29;;;;;;;1999.90;999.90;;;;;;;21.10;52.17;95787.44;5010651;28;20041;-71
2022/08/08 01:06:30;;;;;;;1999.90;999.90;;;;;;;21.18;51.88;95792.59;5025906;28;20108;-72
2022/08/08 01:09:05;;;;;;;1999.90;999.90;;;;;;;21.19;51.53;95788.78;5030527;28;20101;-73
2022/08/08 01:12:02;;;;;;;1999.90;999.90;;;;;;;21.23;51.32;95792.31;5030121;28;20386;-72
2022/08/08 01:14:33;;;;;;;1999.90;999.90;;;;;;;21.20;51.09;95792.28;5031334;28;20467;-71
2022/08/08 01:17:16;;;;;;;1999.90;999.90;;;;;;;21.20;51.09;95790.34;5028837;28;20030;-71
2022/08/08 01:20:19;;;;;;;1999.90;999.90;;;;;;;21.15;51.05;95784.44;5030468;28;20032;-71
2022/08/08 01:23:31;;;;;;;1999.90;999.90;;;;;;;21.09;51.48;95788.53;5010913;28;20032;-71
2022/08/08 01:26:26;;;;;;;1999.90;999.90;;;;;;;21.02;51.63;95794.59;4976048;28;20076;-71
2022/08/08 01:29:26;;;;;;;1999.90;999.90;;;;;;;20.97;52.15;95790.25;5025957;28;20120;-71
2022/08/08 01:32:19;;;;;;;1999.90;999.90;;;;;;;20.98;52.03;95785.63;5046130;28;20026;-71
2022/08/08 01:34:44;;;;;;;1999.90;999.90;;;;;;;20.92;52.10;95789.75;5030354;28;20111;-71
2022/08/08 01:37:40;;;;;;;1999.90;999.90;;;;;;;20.83;52.36;95784.56;5026919;28;20125;-71
2022/08/08 01:40:17;;;;;;;1999.90;999.90;;;;;;;20.83;52.27;95792.69;5030056;28;20426;-71
2022/08/08 01:42:57;;;;;;;1999.90;999.90;;;;;;;20.82;52.61;95787.59;5028926;28;20021;-71
2022/08/08 01:45:54;;;;;;;1999.90;999.90;;;;;;;20.85;52.47;95792.31;5028470;28;20021;-70
2022/08/08 01:48:22;;;;;;;1999.90;999.90;;;;;;;20.83;52.34;95792.69;5030800;28;20026;-70
2022/08/08 01:51:15;;;;;;;1999.90;999.90;;;;;;;20.83;52.30;95794.56;5029350;28;20036;-70
2022/08/08 01:53:55;;;;;;;1999.90;999.90;;;;;;;20.83;52.40;95797.28;5028119;28;20042;-71
2022/08/08 01:57:02;;;;;;;1999.90;999.90;;;;;;;20.78;52.55;95792.94;5046016;28;20026;-71
2022/08/08 01:59:27;;;;;;;1999.90;999.90;;;;;;;20.82;52.51;95801.91;5030117;28;20032;-71
2022/08/08 02:02:44;;;;;;;1999.90;999.90;;;;;;;20.76;52.19;95798.69;5030524;28;20363;-71
2022/08/08 02:05:25;;;;;;;1999.90;999.90;;;;;;;20.75;52.25;95796.34;5027949;28;20033;-72
2022/08/08 02:08:06;;;;;;;1999.90;999.90;;;;;;;20.74;52.91;95797.50;5026680;28;20025;-71
2022/08/08 02:10:59;;;;;;;1999.90;999.90;;;;;;;20.73;52.32;95804.81;5025788;28;20068;-71
2022/08/08 02:13:34;;;;;;;1999.90;999.90;;;;;;;20.71;52.39;95801.66;5029729;28;20021;-71
2022/08/08 02:16:25;;;;;;;1999.90;999.90;;;;;;;20.72;52.44;95808.63;5029482;28;20036;-71
2022/08/08 02:19:16;;;;;;;1999.90;999.90;;;;;;;20.64;52.66;95798.81;5013462;28;20429;-71
2022/08/08 02:24:30;;;;;;;1999.90;999.90;;;;;;;20.66;52.84;95801.94;5029032;28;20060;-71
2022/08/08 02:27:17;;;;;;;1999.90;999.90;;;;;;;20.60;53.05;95803.34;5028525;28;20105;-71
2022/08/08 02:30:03;;;;;;;1999.90;999.90;;;;;;;20.54;52.99;95802.06;5029418;28;20041;-70
2022/08/08 02:32:28;;;;;;;1999.90;999.90;;;;;;;20.53;53.25;95805.13;5029853;28;20867;-71
2022/08/08 02:35:15;;;;;;;1999.90;999.90;;;;;;;20.49;53.61;95802.34;5029216;28;20116;-71
2022/08/08 02:38:01;;;;;;;1999.90;999.90;;;;;;;20.49;53.56;95805.03;5029069;28;20653;-70
2022/08/08 02:40:35;;;;;;;1999.90;999.90;;;;;;;20.49;53.36;95805.81;5023513;28;20029;-71
2022/08/08 02:43:19;;;;;;;1999.90;999.90;;;;;;;20.51;53.45;95802.75;5028364;28;20072;-71
2022/08/08 02:45:44;;;;;;;1999.90;999.90;;;;;;;20.48;53.22;95819.69;5030241;28;20421;-71
2022/08/08 02:48:51;;;;;;;1999.90;999.90;;;;;;;20.47;53.35;95808.09;5029218;28;20121;-70
2022/08/08 02:51:52;;;;;;;1999.90;999.90;;;;;;;20.44;53.51;95816.09;5029298;28;20108;-70
2022/08/08 02:54:36;;;;;;;1999.90;999.90;;;;;;;20.43;53.54;95819.94;5009101;28;20394;-71
2022/08/08 02:57:27;;;;;;;1999.90;999.90;;;;;;;20.44;53.50;95816.88;5027908;28;20497;-71
2022/08/08 03:00:21;;;;;;;1999.90;999.90;;;;;;;20.38;52.84;95806.69;5029856;28;20093;-71
2022/08/08 03:03:34;;;;;;;1999.90;999.90;;;;;;;20.32;52.85;95822.38;5029758;28;20095;-71
2022/08/08 03:06:26;;;;;;;1999.90;999.90;;;;;;;20.28;53.25;95816.09;5002625;28;20471;-71
2022/08/08 03:09:26;;;;;;;1999.90;999.90;;;;;;;20.21;52.42;95816.69;5042278;28;20065;-70
2022/08/08 03:12:02;;;;;;;1999.90;999.90;;;;;;;20.20;52.17;95817.03;5010202;28;20034;-71
2022/08/08 03:14:50;;;;;;;1999.90;999.90;;;;;;;20.24;52.07;95810.59;5025516;28;20022;-71
2022/08/08 03:17:38;;;;;;;1999.90;999.90;;;;;;;20.18;51.82;95817.41;5028968;28;20120;-71
2022/08/08 03:20:06;;;;;;;1999.90;999.90;;;;;;;20.12;51.64;95813.41;5028252;28;20516;-71
2022/08/08 03:22:34;;;;;;;1999.90;999.90;;;;;;;20.17;51.79;95813.13;5028237;28;20025;-71
2022/08/08 03:25:02;;;;;;;1999.90;999.90;;;;;;;20.18;51.81;95809.31;5029119;28;20026;-71
2022/08/08 03:27:36;;;;;;;1999.90;999.90;;;;;;;20.17;51.83;95793.44;5033377;28;20057;-71
2022/08/08 03:30:13;;;;;;;1999.90;999.90;;;;;;;20.26;51.81;95802.13;5032166;28;20021;-71
2022/08/08 03:35:25;;;;;;;1999.90;999.90;;;;;;;20.16;52.26;95795.34;5032450;28;20513;-71
2022/08/08 03:37:51;;;;;;;1999.90;999.90;;;;;;;20.26;52.40;95813.72;5030499;28;20029;-72
2022/08/08 03:40:19;;;;;;;1999.90;999.90;;;;;;;20.18;52.08;95805.81;5020878;28;20026;-71
2022/08/08 03:42:45;;;;;;;1999.90;999.90;;;;;;;19.85;51.99;95755.63;5032451;28;20053;-71
2022/08/08 03:45:13;;;;;;;1999.90;999.90;;;;;;;20.21;52.06;95815.91;5032814;28;20037;-71
2022/08/08 03:47:39;;;;;;;1999.90;999.90;;;;;;;20.06;52.08;95803.19;5030782;28;20032;-71
2022/08/08 03:50:13;;;;;;;1999.90;999.90;;;;;;;19.67;52.32;95749.78;5032682;28;20030;-72
2022/08/08 03:52:39;;;;;;;1999.90;999.90;;;;;;;19.64;52.39;95758.56;5031343;28;20095;-71
2022/08/08 03:55:09;;;;;;;1999.90;999.90;;;;;;;19.90;52.32;95795.09;5030415;28;20470;-71
2022/08/08 03:57:34;;;;;;;1999.90;999.90;;;;;;;19.41;52.82;95735.97;5032885;28;20027;-70
2022/08/08 04:00:00;;;;;;;1999.90;999.90;;;;;;;19.55;52.55;95752.56;5031811;28;20017;-70
2022/08/08 04:02:25;;;;;;;1999.90;999.90;;;;;;;19.52;52.67;95744.34;5031996;28;20025;-70
2022/08/08 04:04:51;;;;;;;1999.90;999.90;;;;;;;19.61;52.80;95772.78;5032718;28;20040;-71
2022/08/08 04:07:16;;;;;;;1999.90;999.90;;;;;;;19.58;52.68;95778.03;5031618;28;20466;-71
2022/08/08 04:09:55;;;;;;;1999.90;999.90;;;;;;;19.76;53.02;95809.03;5031053;28;20083;-70
2022/08/08 04:12:20;;;;;;;1999.90;999.90;;;;;;;19.46;52.94;95766.19;5032105;28;20463;-70
2022/08/08 04:14:45;;;;;;;1999.90;999.90;;;;;;;19.49;52.61;95762.78;5032194;28;20124;-70
2022/08/08 04:17:11;;;;;;;1999.90;999.90;;;;;;;19.38;52.95;95736.66;5032314;28;20036;-71
2022/08/08 04:19:36;;;;;;;1999.90;999.90;;;;;;;19.62;52.70;95778.97;5031532;28;20022;-70
2022/08/08 04:22:03;;;;;;;1999.90;999.90;;;;;;;19.48;52.51;95755.81;5030144;28;20471;-71
2022/08/08 04:24:29;;;;;;;1999.90;999.90;;;;;;;19.61;52.55;95772.78;5030968;28;20145;-70
2022/08/08 04:26:54;;;;;;;1999.90;999.90;;;;;;;19.52;52.24;95761.31;5031359;28;20106;-72
2022/08/08 04:29:19;;;;;;;1999.90;999.90;;;;;;;19.79;52.17;95796.72;5030875;28;20025;-70
2022/08/08 04:31:45;;;;;;;1999.90;999.90;;;;;;;20.02;52.56;95840.94;5031017;28;20029;-70
2022/08/08 04:34:10;;;;;;;1999.90;999.90;;;;;;;19.69;52.43;95800.72;5030711;28;20040;-70
2022/08/08 04:36:35;;;;;;;1999.90;999.90;;;;;;;19.73;52.55;95807.78;5031024;28;20018;-70
2022/08/08 04:39:02;;;;;;;1999.90;999.90;;;;;;;19.72;52.55;95791.94;5030804;28;20029;-70
2022/08/08 04:41:27;;;;;;;1999.90;999.90;;;;;;;20.14;51.93;95838.13;5031133;28;20017;-69
2022/08/08 04:43:53;;;;;;;1999.90;999.90;;;;;;;20.42;51.60;95843.47;5031363;28;20029;-75
2022/08/08 04:46:18;;;;;;;1999.90;999.90;;;;;;;20.53;51.21;95838.34;5031658;28;20450;-68
2022/08/08 04:48:43;;;;;;;1999.90;999.90;;;;;;;20.65;50.90;95846.34;5030837;28;20474;-71
2022/08/08 04:51:09;;;;;;;1999.90;999.90;;;;;;;20.76;50.88;95852.75;5030959;28;20029;-70
2022/08/08 04:53:34;;;;;;;1999.90;999.90;;;;;;;20.84;50.68;95856.44;5030322;28;20037;-69
2022/08/08 04:55:59;;;;;;;1999.90;999.90;;;;;;;20.91;50.48;95863.91;5029837;28;20030;-70
2022/08/08 04:58:25;;;;;;;1999.90;999.90;;;;;;;20.92;50.32;95860.84;5047277;28;20406;-70
2022/08/08 05:00:50;;;;;;;1999.90;999.90;;;;;;;20.89;50.39;95856.16;5031367;28;20494;-70
2022/08/08 05:03:16;;;;;;;1999.90;999.90;;;;;;;20.97;50.37;95863.28;5009907;28;20026;-70
2022/08/08 05:05:41;;;;;;;1999.90;999.90;;;;;;;20.96;50.39;95867.13;5011738;28;20030;-71
2022/08/08 05:08:06;;;;;;;1999.90;999.90;;;;;;;20.94;50.25;95855.88;5030199;28;20104;-70
2022/08/08 05:10:32;;;;;;;1999.90;999.90;;;;;;;21.03;49.93;95861.06;5029533;28;20111;-70
2022/08/08 05:12:57;;;;;;;1999.90;999.90;;;;;;;21.08;50.08;95868.91;5030766;28;20108;-70
2022/08/08 05:15:22;;;;;;;1999.90;999.90;;;;;;;21.08;50.14;95866.22;5030820;28;20021;-70
2022/08/08 05:17:48;;;;;;;1999.90;999.90;;;;;;;21.20;50.09;95871.50;5029987;28;20083;-70
2022/08/08 05:20:13;;;;;;;1999.90;999.90;;;;;;;21.29;50.02;95882.91;5030284;28;20064;-70
2022/08/08 05:22:39;;;;;;;1999.90;999.90;;;;;;;21.46;49.59;95880.97;5028245;28;20033;-70
2022/08/08 05:25:05;;;;;;;1999.90;999.90;;;;;;;21.60;49.36;95885.88;5029755;28;20034;-70
2022/08/08 05:27:30;;;;;;;1999.90;999.90;;;;;;;21.71;49.12;95884.97;5029140;28;20025;-71
2022/08/08 05:29:56;;;;;;;1999.90;999.90;;;;;;;21.68;49.38;95874.03;5030773;28;20371;-70
2022/08/08 05:32:21;;;;;;;1999.90;999.90;;;;;;;21.80;48.88;95873.88;5028336;28;20522;-70
2022/08/08 05:34:49;;;;;;;1999.90;999.90;;;;;;;21.93;48.59;95877.22;5029351;28;20120;-71
2022/08/08 05:37:22;;;;;;;1999.90;999.90;;;;;;;21.98;48.16;95872.31;5024464;28;20044;-69
2022/08/08 05:39:53;;;;;;;1999.90;999.90;;;;;;;22.11;48.08;95881.09;5015482;28;20522;-69
2022/08/08 05:42:37;;;;;;;1999.90;999.90;;;;;;;22.16;48.28;95880.00;5026095;28;20029;-69
2022/08/08 05:45:03;;;;;;;1999.90;999.90;;;;;;;22.24;48.01;95879.75;5030027;28;20116;-69
2022/08/08 05:47:29;;;;;;;1999.90;999.90;;;;;;;22.30;47.73;95888.38;5030151;28;20100;-70
2022/08/08 05:49:57;;;;;;;1999.90;999.90;;;;;;;22.17;47.15;95887.00;5029498;28;20021;-70
2022/08/08 05:52:23;;;;;;;1999.90;999.90;;;;;;;22.37;47.11;95895.84;5029082;28;20072;-67
2022/08/08 05:54:49;;;;;;;1999.90;999.90;;;;;;;22.43;47.16;95894.41;5028108;28;20044;-70
2022/08/08 05:57:15;;;;;;;1999.90;999.90;;;;;;;22.46;47.34;95878.19;5027602;28;20033;-71
2022/08/08 05:59:44;;;;;;;1999.90;999.90;;;;;;;22.59;47.26;95886.94;5030403;28;20498;-64
2022/08/08 06:05:07;;;;;;;1999.90;999.90;;;;;;;22.83;46.44;95891.97;5030329;28;20052;-65
2022/08/08 06:07:34;;;;;;;1999.90;999.90;;;;;;;22.83;46.51;95878.41;5029667;28;20111;-64
2022/08/08 06:10:01;;;;;;;1999.90;999.90;;;;;;;22.93;45.96;95890.59;5028271;28;20118;-64
2022/08/08 06:12:27;;;;;;;1999.90;999.90;;;;;;;22.96;45.98;95897.22;5029241;28;20029;-67
2022/08/08 06:14:55;;;;;;;1999.90;999.90;;;;;;;22.95;46.46;95893.72;5028939;28;20036;-64
2022/08/08 06:17:21;;;;;;;1999.90;999.90;;;;;;;23.11;45.83;95892.78;5029578;28;20033;-65
2022/08/08 06:19:46;;;;;;;1999.90;999.90;;;;;;;23.21;45.45;95897.56;5028218;28;20490;-66
2022/08/08 06:22:12;;;;;;;1999.90;999.90;;;;;;;23.29;45.57;95891.09;5027546;28;20037;-66
2022/08/08 06:24:37;;;;;;;1999.90;999.90;;;;;;;23.35;45.80;95893.13;5029156;28;20029;-72
2022/08/08 06:27:04;;;;;;;1999.90;999.90;;;;;;;23.44;45.13;95892.84;5028118;28;20029;-73
2022/08/08 06:29:43;;;;;;;1999.90;999.90;;;;;;;23.23;45.49;95903.41;5030264;28;20021;-71
2022/08/08 06:32:16;;;;;;;1999.90;999.90;;;;;;;23.16;45.47;95901.38;5026956;28;20075;-72
2022/08/08 06:34:51;;;;;;;1999.90;999.90;;;;;;;23.50;45.11;95904.16;5029175;28;20500;-70
2022/08/08 06:37:21;;;;;;;1999.90;999.90;;;;;;;23.35;45.30;95898.56;5029120;28;20064;-71
2022/08/08 06:39:49;;;;;;;1999.90;999.90;;;;;;;23.72;45.09;95910.69;5044922;28;20044;-72
2022/08/08 06:42:17;;;;;;;1999.90;999.90;;;;;;;23.23;45.26;95909.63;5029283;28;20026;-70
2022/08/08 06:44:47;;;;;;;1999.90;999.90;;;;;;;23.68;44.91;95915.28;5030348;28;20021;-70
2022/08/08 06:47:13;;;;;;;1999.90;999.90;;;;;;;23.23;45.78;95911.53;5028592;28;20025;-72
2022/08/08 06:49:40;;;;;;;1999.90;999.90;;;;;;;23.48;44.96;95911.88;5030208;28;20276;-73
2022/08/08 06:52:06;;;;;;;1999.90;999.90;;;;;;;23.97;44.12;95919.91;5043504;28;20034;-73
2022/08/08 06:54:33;;;;;;;1999.90;999.90;;;;;;;24.14;43.97;95910.38;5030045;28;20109;-73
2022/08/08 06:56:59;;;;;;;1999.90;999.90;;;;;;;24.22;43.84;95911.25;5025006;28;20028;-74
2022/08/08 06:59:24;;;;;;;1999.90;999.90;;;;;;;24.03;44.48;95923.06;5018958;28;20068;-65
2022/08/08 07:01:54;;;;;;;1999.90;999.90;;;;;;;24.22;43.73;95912.00;5018566;28;20060;-66
2022/08/08 07:04:38;;;;;;;1999.90;999.90;;;;;;;24.63;43.72;95923.69;5030564;28;20535;-66
2022/08/08 07:07:08;;;;;;;1999.90;999.90;;;;;;;24.96;41.86;95926.66;5030430;28;20068;-66
2022/08/08 07:09:41;;;;;;;1999.90;999.90;;;;;;;24.86;42.01;95930.88;5033359;28;20101;-66
2022/08/08 07:12:07;;;;;;;1999.90;999.90;;;;;;;24.82;41.81;95927.31;5029267;28;20435;-66
2022/08/08 07:14:54;;;;;;;1999.90;999.90;;;;;;;25.03;41.60;95932.97;5033372;28;20807;-65
2022/08/08 07:17:24;;;;;;;1999.90;999.90;;;;;;;24.90;42.02;95931.69;5044727;28;20072;-67
2022/08/08 07:20:01;;;;;;;1999.90;999.90;;;;;;;24.14;42.96;95937.53;5032913;28;20025;-66
2022/08/08 07:22:35;;;;;;;1999.90;999.90;;;;;;;24.35;43.06;95929.63;5030534;28;20355;-66
2022/08/08 07:25:03;;;;;;;1999.90;999.90;;;;;;;24.70;42.35;95928.41;5033323;28;20025;-66
2022/08/08 07:27:36;;;;;;;1999.90;999.90;;;;;;;24.54;42.12;95936.03;5029902;28;20033;-66
2022/08/08 07:30:04;;;;;;;1999.90;999.90;;;;;;;25.00;42.19;95938.38;5030788;28;20033;-66
2022/08/08 07:32:30;;;;;;;1999.90;999.90;;;;;;;25.23;41.58;95936.22;5031174;28;20030;-66
2022/08/08 07:34:58;;;;;;;1999.90;999.90;;;;;;;25.16;41.70;95925.28;5031169;28;20451;-66
2022/08/08 07:37:25;;;;;;;1999.90;999.90;;;;;;;25.42;41.23;95944.13;5032732;28;20025;-67
2022/08/08 07:39:51;;;;;;;1999.90;999.90;;;;;;;25.38;40.87;95929.69;5031808;28;20084;-66
2022/08/08 07:42:19;;;;;;;1999.90;999.90;;;;;;;25.39;41.46;95935.94;5028957;28;20390;-67
2022/08/08 07:44:46;;;;;;;1999.90;999.90;;;;;;;25.48;41.10;95944.53;5032510;28;20029;-66
2022/08/08 07:47:11;;;;;;;1999.90;999.90;;;;;;;25.42;41.73;95937.88;5032481;28;20029;-66
2022/08/08 07:49:38;;;;;;;1999.90;999.90;;;;;;;25.37;41.43;95927.34;5031145;28;20026;-66
2022/08/08 07:52:08;;;;;;;1999.90;999.90;;;;;;;25.37;41.18;95947.19;5031086;28;20021;-67
2022/08/08 07:54:38;;;;;;;1999.90;999.90;;;;;;;25.41;41.38;95939.06;5032530;28;20093;-67
2022/08/08 07:57:26;;;;;;;1999.90;999.90;;;;;;;25.42;41.09;95957.72;5046210;28;20687;-67
2022/08/08 08:00:03;;;;;;;1999.90;999.90;;;;;;;25.08;41.20;95945.44;5032480;28;20041;-67
2022/08/08 08:02:39;;;;;;;1999.90;999.90;;;;;;;24.95;41.57;95938.72;5030782;28;20032;-67
2022/08/08 08:05:19;;;;;;;1999.90;999.90;;;;;;;24.98;41.12;95938.75;5031281;28;20041;-68
2022/08/08 08:07:48;;;;;;;1999.90;999.90;;;;;;;25.42;40.69;95948.78;5032235;28;20021;-67
2022/08/08 08:10:17;;;;;;;1999.90;999.90;;;;;;;25.21;41.09;95949.44;5030376;28;20071;-67
2022/08/08 08:12:50;;;;;;;1999.90;999.90;;;;;;;25.42;40.88;95955.00;5028633;28;20029;-67
2022/08/08 08:15:18;;;;;;;1999.90;999.90;;;;;;;25.25;40.31;95949.47;5047119;28;20108;-67
2022/08/08 08:17:46;;;;;;;1999.90;999.90;;;;;;;24.97;40.28;95952.72;5030639;28;20044;-67
2022/08/08 08:20:14;;;;;;;1999.90;999.90;;;;;;;24.51;41.31;95962.03;5032055;28;20486;-67
2022/08/08 08:22:39;;;;;;;1999.90;999.90;;;;;;;24.71;41.22;95962.59;5030383;28;20033;-67
2022/08/08 08:25:05;;;;;;;1999.90;999.90;;;;;;;24.82;40.98;95946.38;5031836;28;20026;-67
2022/08/08 08:27:30;;;;;;;1999.90;999.90;;;;;;;24.97;40.73;95933.66;5030322;28;20047;-67
2022/08/08 08:29:56;;;;;;;1999.90;999.90;;;;;;;25.41;40.07;95953.44;5031782;28;20026;-67
2022/08/08 08:32:21;;;;;;;1999.90;999.90;;;;;;;25.42;39.39;95955.00;5030009;28;20402;-67
2022/08/08 08:34:48;;;;;;;1999.90;999.90;;;;;;;25.56;39.55;95954.31;5030514;28;20425;-67
2022/08/08 08:37:15;;;;;;;1999.90;999.90;;;;;;;25.38;39.72;95950.69;5030709;28;20075;-67
2022/08/08 08:39:41;;;;;;;1999.90;999.90;;;;;;;25.55;39.47;95949.25;5031654;28;20056;-67
2022/08/08 08:42:07;;;;;;;1999.90;999.90;;;;;;;25.36;39.68;95942.91;5029155;28;20497;-67
2022/08/08 08:44:32;;;;;;;1999.90;999.90;;;;;;;24.97;40.64;95960.88;5031421;28;20025;-67
2022/08/08 08:46:59;;;;;;;1999.90;999.90;;;;;;;25.66;39.88;95958.25;5030488;28;20462;-67
2022/08/08 08:49:24;;;;;;;1999.90;999.90;;;;;;;25.82;39.72;95949.81;5031294;28;20387;-67
2022/08/08 08:51:52;;;;;;;1999.90;999.90;;;;;;;25.48;39.82;95949.19;5031693;28;20018;-67
2022/08/08 08:54:20;;;;;;;1999.90;999.90;;;;;;;26.05;38.96;95963.13;5029751;28;20026;-67
2022/08/08 08:56:46;;;;;;;1999.90;999.90;;;;;;;26.13;39.31;95972.91;5030374;28;20044;-67
2022/08/08 08:59:12;;;;;;;1999.90;999.90;;;;;;;26.27;38.91;95951.13;5028178;28;20045;-67
2022/08/08 09:01:42;;;;;;;1999.90;999.90;;;;;;;26.14;37.77;95963.56;5031168;28;20022;-67
2022/08/08 09:04:12;;;;;;;1999.90;999.90;;;;;;;26.14;37.85;95964.34;5030694;28;20029;-67
2022/08/08 09:06:40;;;;;;;1999.90;999.90;;;;;;;26.40;37.21;95970.63;5031073;28;20025;-67
2022/08/08 09:09:09;;;;;;;1999.90;999.90;;;;;;;26.49;37.55;95953.94;5028791;28;20028;-67
2022/08/08 09:11:35;;;;;;;1999.90;999.90;;;;;;;26.28;37.67;95960.88;5031053;28;20026;-67
2022/08/08 09:14:02;;;;;;;1999.90;999.90;;;;;;;26.56;37.10;95970.31;5028849;28;20048;-67
2022/08/08 09:16:29;;;;;;;1999.90;999.90;;;;;;;26.67;36.72;95957.47;5029590;28;20029;-67
2022/08/08 09:18:55;;;;;;;1999.90;999.90;;;;;;;26.98;36.64;95971.53;5030832;28;20049;-67
2022/08/08 09:21:22;;;;;;;1999.90;999.90;;;;;;;27.00;36.23;95964.50;5029561;28;20331;-67
2022/08/08 09:23:47;;;;;;;1999.90;999.90;;;;;;;27.06;35.82;95973.88;5029608;28;20029;-67
2022/08/08 09:26:19;;;;;;;1999.90;999.90;;;;;;;26.67;35.57;95971.13;5030065;28;20100;-67
2022/08/08 09:28:45;;;;;;;1999.90;999.90;;;;;;;27.01;35.25;95960.59;5027455;28;20168;-67
2022/08/08 09:31:27;;;;;;;1999.90;999.90;;;;;;;27.06;35.41;95964.91;5012946;28;20034;-66
2022/08/08 09:33:53;;;;;;;1999.90;999.90;;;;;;;27.36;34.13;95965.28;5030100;28;20028;-67
2022/08/08 09:36:22;;;;;;;1999.90;999.90;;;;;;;26.97;34.18;95968.00;5030450;28;20033;-67
2022/08/08 09:38:58;;;;;;;1999.90;999.90;;;;;;;27.33;34.02;95971.56;5028849;28;20025;-67
2022/08/08 09:41:36;;;;;;;1999.90;999.90;;;;;;;27.31;33.81;95957.50;5030137;28;20084;-67
2022/08/08 09:44:20;;;;;;;1999.90;999.90;;;;;;;27.30;33.80;95961.41;5019595;28;20038;-67
2022/08/08 09:46:49;;;;;;;1999.90;999.90;;;;;;;27.09;33.89;95961.41;5008958;28;20026;-67
2022/08/08 09:49:17;;;;;;;1999.90;999.90;;;;;;;27.16;34.31;95969.59;5010593;28;20356;-67
2022/08/08 09:51:47;;;;;;;1999.90;999.90;;;;;;;26.82;34.18;95958.25;5015427;28;20377;-67
2022/08/08 09:54:17;;;;;;;1999.90;999.90;;;;;;;26.60;33.26;95954.72;5016212;28;20030;-67
2022/08/08 09:56:46;;;;;;;1999.90;999.90;;;;;;;26.73;33.33;95960.59;5010590;28;20108;-67
2022/08/08 09:59:21;;;;;;;1999.90;999.90;;;;;;;27.19;33.05;95966.09;5038492;28;20741;-67
2022/08/08 10:01:50;;;;;;;1999.90;999.90;;;;;;;26.90;33.28;95963.34;5028897;28;20080;-67
2022/08/08 10:04:18;;;;;;;1999.90;999.90;;;;;;;27.51;33.08;95965.28;5027519;28;20034;-67
2022/08/08 10:06:46;;;;;;;1999.90;999.90;;;;;;;27.85;31.87;95957.41;5030078;28;20031;-67
2022/08/08 10:09:12;;;;;;;1999.90;999.90;;;;;;;28.15;31.91;95952.19;5029885;28;20053;-67
2022/08/08 10:11:39;;;;;;;1999.90;999.90;;;;;;;28.17;31.63;95949.06;5046274;28;20053;-67
2022/08/08 10:14:06;;;;;;;1999.90;999.90;;;;;;;27.45;32.38;95965.66;5027403;28;20024;-67
2022/08/08 10:16:42;;;;;;;1999.90;999.90;;;;;;;27.02;33.49;95939.53;5028481;28;20032;-65
2022/08/08 10:19:12;;;;;;;1999.90;999.90;;;;;;;26.88;33.80;95938.38;5027966;28;20034;-71
2022/08/08 10:21:38;;;;;;;1999.90;999.90;;;;;;;25.94;34.85;95903.13;5022541;28;20029;-70
2022/08/08 10:24:09;;;;;;;1999.90;999.90;;;;;;;26.57;34.31;95907.19;5026710;28;20029;-72
2022/08/08 10:26:43;;;;;;;1999.90;999.90;;;;;;;26.23;34.76;95953.06;5029394;28;20087;-72
2022/08/08 10:29:11;;;;;;;1999.90;999.90;;;;;;;26.29;34.38;95921.53;5028282;28;20031;-72
2022/08/08 10:34:24;;;;;;;1999.90;999.90;;;;;;;26.04;38.21;95926.13;5029447;28;20076;-70
2022/08/08 10:36:50;;;;;;;1999.90;999.90;;;;;;;26.38;36.48;95954.66;5029695;28;20029;-69
2022/08/08 10:39:18;;;;;;;1999.90;999.90;;;;;;;27.20;36.07;95962.19;5028174;28;20430;-69
2022/08/08 10:41:46;;;;;;;1999.90;999.90;;;;;;;26.85;34.81;95955.53;5027076;28;20026;-71
2022/08/08 10:44:16;;;;;;;1999.90;999.90;;;;;;;26.92;34.82;95903.69;5027435;28;20080;-70
2022/08/08 10:46:41;;;;;;;1999.90;999.90;;;;;;;27.65;33.10;95948.84;5028688;28;20469;-70
2022/08/08 10:49:06;;;;;;;1999.90;999.90;;;;;;;27.69;32.98;95903.94;5029734;28;20060;-69
2022/08/08 10:51:36;;;;;;;1999.90;999.90;;;;;;;27.99;32.83;95913.56;5030016;28;20080;-70
2022/08/08 10:54:01;;;;;;;1999.90;999.90;;;;;;;27.18;33.43;95891.59;5028166;28;20033;-72
2022/08/08 10:56:36;;;;;;;1999.90;999.90;;;;;;;27.98;32.15;95945.59;5029466;28;20108;-69
2022/08/08 10:59:09;;;;;;;1999.90;999.90;;;;;;;26.83;33.92;95916.94;5027294;28;20063;-71
2022/08/08 11:01:37;;;;;;;1999.90;999.90;;;;;;;26.77;33.25;95888.47;5044911;28;20441;-71
2022/08/08 11:04:07;;;;;;;1999.90;999.90;;;;;;;26.77;34.04;95926.69;5024485;28;20401;-71
2022/08/08 11:06:33;;;;;;;1999.90;999.90;;;;;;;27.35;33.34;95895.44;5029206;28;20030;-70
2022/08/08 11:09:07;;;;;;;1999.90;999.90;;;;;;;27.96;32.86;95928.84;5017518;28;20030;-72
2022/08/08 11:11:43;;;;;;;1999.90;999.90;;;;;;;27.65;32.76;95894.97;5026301;28;20025;-71
2022/08/08 11:14:11;;;;;;;1999.90;999.90;;;;;;;28.28;32.28;95903.25;5042369;28;20478;-71
2022/08/08 11:16:41;;;;;;;1999.90;999.90;;;;;;;28.11;32.95;95907.66;5029274;28;20064;-71
2022/08/08 11:19:07;;;;;;;1999.90;999.90;;;;;;;28.40;31.97;95937.63;5024391;28;20548;-72
2022/08/08 11:21:35;;;;;;;1999.90;999.90;;;;;;;27.10;34.22;95890.03;5029188;28;20064;-71
2022/08/08 11:24:03;;;;;;;1999.90;999.90;;;;;;;26.99;33.82;95926.69;5028149;28;20022;-71
2022/08/08 11:26:30;;;;;;;1999.90;999.90;;;;;;;26.67;35.22;95944.63;5027887;28;20183;-71
2022/08/08 11:29:00;;;;;;;1999.90;999.90;;;;;;;27.18;34.34;95885.34;5028593;28;20060;-71
2022/08/08 11:31:27;;;;;;;1999.90;999.90;;;;;;;27.48;33.54;95899.28;5029078;28;20021;-72
2022/08/08 11:33:54;;;;;;;1999.90;999.90;;;;;;;27.05;33.94;95892.34;5027476;28;20029;-71